首页
METAR-TAF:

METAR-TAF

机场 :

維也納新城, 奥地利

纬度: 47-50-36N, 经度: 016-15-29E, 海拔: 272米

当前天气观测

该预报发布于41分钟前的17:00 UTC
风速8节,风向
温度
气压

METAR: LOAN 241700Z 35008KT 35KM FEW045CU

时间: 19:41 (17:41 UTC)

预报

该预报发布于6小时和16分钟前的11:25 UTC
预报有效从24日的 12点(UTC)到 24日的 21点(UTC)
风速12节,风向北转西北
能见度10公里或以上
少量云层高于4000英尺
短暂存在
从 24日的 12点(UTC)到 24日的 17点(UTC)
风速16节,风向

TAF: LOAN 241125Z 2412/2421 33012KT 9999 FEW040 TEMPO 2412/2417 35016KT

超过4000个机场的气象观测和天气预报(METAR&TAF报告)。

可查询的气象台以黄色和红色小点在地图上表示。

将鼠标移到小点上方,可查看气象台名称。

然后点击查看天气观测和预报。

如需切换地图:点击带黑十字的绿色按钮放大地图;点击带横线的绿色按钮缩小地图;或者点击绿色箭头查看邻近地区的地图。


METAR-TAF: